createdAt,value
2023-04-16T00:01:37.404Z,5.45
2023-04-16T00:04:04.261Z,4.82
2023-04-16T00:06:31.788Z,5.22
2023-04-16T00:08:58.532Z,6.05
2023-04-16T00:11:24.921Z,5.72
2023-04-16T00:13:51.325Z,5.10
2023-04-16T00:16:17.826Z,5.63
2023-04-16T00:18:44.424Z,4.75
2023-04-16T00:21:11.192Z,5.75
2023-04-16T00:23:38.171Z,5.65
2023-04-16T00:26:04.742Z,5.80
2023-04-16T00:28:31.179Z,5.75
2023-04-16T00:30:57.769Z,6.30
2023-04-16T00:33:24.376Z,5.18
2023-04-16T00:35:51.239Z,6.15
2023-04-16T00:38:17.789Z,6.05
2023-04-16T00:40:44.315Z,5.82
2023-04-16T00:43:10.723Z,5.57
2023-04-16T00:45:37.240Z,6.15
2023-04-16T00:48:04.472Z,6.70
2023-04-16T00:50:31.081Z,6.55
2023-04-16T00:52:58.155Z,5.78
2023-04-16T00:55:24.832Z,6.47
2023-04-16T00:57:51.250Z,6.30
2023-04-16T01:00:17.793Z,6.38
2023-04-16T01:02:44.475Z,7.40
2023-04-16T01:05:11.412Z,6.78
2023-04-16T01:07:37.909Z,6.03
2023-04-16T01:10:04.645Z,6.82
2023-04-16T01:12:31.169Z,6.70
2023-04-16T01:14:57.660Z,6.57
2023-04-16T01:17:24.207Z,7.25
2023-04-16T01:19:50.695Z,6.28
2023-04-16T01:22:17.241Z,6.15
2023-04-16T01:24:43.663Z,7.35
2023-04-16T01:27:10.197Z,7.60
2023-04-16T01:29:36.914Z,6.82
2023-04-16T01:32:03.364Z,7.50
2023-04-16T01:34:29.793Z,7.90
2023-04-16T01:36:56.441Z,7.47
2023-04-16T01:39:22.910Z,6.97
2023-04-16T01:41:49.315Z,8.30
2023-04-16T01:44:15.875Z,8.55
2023-04-16T01:46:43.955Z,7.43
2023-04-16T01:49:10.965Z,9.05
2023-04-16T01:51:37.753Z,6.80
2023-04-16T01:54:04.258Z,8.32
2023-04-16T01:56:30.740Z,8.00
2023-04-16T01:58:57.312Z,9.38
2023-04-16T02:01:24.238Z,8.60
2023-04-16T02:03:51.649Z,8.82
2023-04-16T02:06:18.493Z,8.48
2023-04-16T02:08:44.961Z,8.35
2023-04-16T02:11:11.342Z,9.57
2023-04-16T02:13:37.829Z,9.35
2023-04-16T02:16:04.473Z,10.32
2023-04-16T02:18:31.004Z,9.68
2023-04-16T02:20:59.799Z,9.82
2023-04-16T02:23:26.566Z,9.82
2023-04-16T02:25:53.061Z,10.57
2023-04-16T02:28:19.664Z,10.50
2023-04-16T02:30:46.212Z,10.65
2023-04-16T02:33:12.842Z,9.80
2023-04-16T02:35:40.497Z,9.90
2023-04-16T02:38:07.979Z,11.40
2023-04-16T02:40:34.538Z,10.40
2023-04-16T02:43:01.215Z,11.20
2023-04-16T02:45:28.108Z,10.77
2023-04-16T02:47:54.646Z,9.65
2023-04-16T02:50:21.202Z,11.35
2023-04-16T02:52:47.705Z,9.73
2023-04-16T02:55:14.145Z,11.05
2023-04-16T02:57:42.524Z,10.05
2023-04-16T03:00:10.001Z,11.77
2023-04-16T03:02:36.873Z,10.45
2023-04-16T03:05:04.232Z,10.93
2023-04-16T03:07:30.746Z,10.73
2023-04-16T03:09:57.229Z,11.65
2023-04-16T03:12:23.712Z,11.55
2023-04-16T03:14:52.835Z,11.27
2023-04-16T03:17:19.424Z,11.23
2023-04-16T03:19:46.223Z,11.90
2023-04-16T03:22:12.804Z,11.15
2023-04-16T03:24:39.351Z,12.05
2023-04-16T03:27:05.874Z,11.65
2023-04-16T03:29:32.296Z,11.68
2023-04-16T03:31:58.795Z,10.38
2023-04-16T03:34:25.386Z,11.23
2023-04-16T03:36:51.896Z,11.73
2023-04-16T03:39:18.476Z,12.30
2023-04-16T03:41:44.988Z,12.35
2023-04-16T03:44:11.442Z,12.25
2023-04-16T03:46:37.884Z,11.45
2023-04-16T03:49:04.502Z,11.18
2023-04-16T03:51:30.944Z,12.93
2023-04-16T03:53:57.374Z,12.18
2023-04-16T03:56:24.727Z,13.15
2023-04-16T03:58:51.125Z,13.38
2023-04-16T04:01:17.602Z,12.23
2023-04-16T04:03:44.546Z,13.23
2023-04-16T04:06:11.180Z,12.15
2023-04-16T04:08:37.734Z,12.98
2023-04-16T04:11:04.433Z,10.98
2023-04-16T04:13:30.866Z,12.45
2023-04-16T04:15:57.408Z,12.82
2023-04-16T04:18:23.874Z,12.73
2023-04-16T04:20:50.340Z,14.57
2023-04-16T04:23:16.792Z,12.75
2023-04-16T04:25:44.047Z,13.18
2023-04-16T04:28:10.484Z,13.10
2023-04-16T04:30:36.866Z,13.23
2023-04-16T04:33:03.489Z,12.80
2023-04-16T04:35:29.958Z,14.25
2023-04-16T04:37:56.702Z,12.88
2023-04-16T04:40:23.216Z,13.90
2023-04-16T04:42:49.627Z,12.15
2023-04-16T04:45:16.254Z,14.02
2023-04-16T04:47:42.799Z,14.63
2023-04-16T04:50:09.766Z,14.27
2023-04-16T04:52:36.322Z,14.00
2023-04-16T04:55:02.844Z,14.23
2023-04-16T04:57:29.387Z,15.02
2023-04-16T04:59:55.940Z,14.90
2023-04-16T05:02:22.521Z,14.43
2023-04-16T05:04:49.069Z,13.93
2023-04-16T05:07:16.377Z,15.32
2023-04-16T05:09:42.831Z,14.52
2023-04-16T05:12:09.277Z,14.25
2023-04-16T05:14:36.327Z,15.73
2023-04-16T05:17:02.967Z,15.13
2023-04-16T05:19:29.524Z,15.20
2023-04-16T05:21:56.250Z,13.95
2023-04-16T05:24:22.751Z,14.30
2023-04-16T05:26:49.222Z,13.70
2023-04-16T05:29:15.920Z,14.63
2023-04-16T05:31:42.523Z,15.43
2023-04-16T05:34:08.939Z,14.55
2023-04-16T05:36:35.398Z,14.98
2023-04-16T05:39:01.938Z,16.27
2023-04-16T05:41:28.455Z,15.13
2023-04-16T05:43:54.894Z,15.98
2023-04-16T05:46:21.354Z,15.93
2023-04-16T05:48:47.878Z,14.65
2023-04-16T05:51:14.307Z,15.15
2023-04-16T05:53:41.036Z,15.90
2023-04-16T05:56:07.924Z,13.55
2023-04-16T05:58:34.365Z,13.52
2023-04-16T06:01:04.131Z,12.05
2023-04-16T06:03:30.620Z,15.63
2023-04-16T06:05:57.338Z,13.10
2023-04-16T06:08:23.998Z,12.85
2023-04-16T06:10:51.100Z,13.63
2023-04-16T06:13:20.467Z,12.98
2023-04-16T06:15:47.097Z,14.38
2023-04-16T06:18:13.763Z,12.80
2023-04-16T06:20:40.584Z,13.50
2023-04-16T06:23:07.077Z,13.45
2023-04-16T06:25:33.518Z,13.43
2023-04-16T06:27:59.941Z,12.70
2023-04-16T06:30:26.809Z,13.60
2023-04-16T06:32:53.815Z,13.93
2023-04-16T06:35:20.632Z,13.32
2023-04-16T06:37:47.397Z,14.13
2023-04-16T06:40:13.970Z,13.30
2023-04-16T06:42:41.198Z,13.88
2023-04-16T06:45:09.607Z,13.20
2023-04-16T06:47:36.222Z,12.83
2023-04-16T06:50:02.690Z,13.70
2023-04-16T06:52:29.933Z,12.45
2023-04-16T06:54:56.725Z,11.52
2023-04-16T06:57:23.292Z,13.07
2023-04-16T06:59:52.612Z,13.75
2023-04-16T07:02:19.234Z,12.88
2023-04-16T07:04:45.715Z,13.55
2023-04-16T07:07:12.263Z,12.60
2023-04-16T07:09:38.676Z,12.73
2023-04-16T07:12:07.030Z,13.10
2023-04-16T07:14:33.582Z,12.73
2023-04-16T07:17:00.096Z,13.20
2023-04-16T07:19:30.430Z,12.50
2023-04-16T07:21:56.921Z,12.48
2023-04-16T07:24:23.329Z,12.63
2023-04-16T07:26:49.712Z,12.95
2023-04-16T07:29:16.163Z,12.23
2023-04-16T07:31:42.830Z,12.18
2023-04-16T07:34:09.436Z,11.93
2023-04-16T07:36:36.204Z,11.52
2023-04-16T07:39:02.735Z,11.57
2023-04-16T07:41:29.599Z,12.98
2023-04-16T07:43:56.067Z,13.30
2023-04-16T07:46:22.480Z,13.45
2023-04-16T07:48:49.099Z,12.68
2023-04-16T07:51:15.973Z,12.95
2023-04-16T07:53:43.383Z,12.43
2023-04-16T07:56:09.872Z,12.00
2023-04-16T07:58:36.382Z,12.45
2023-04-16T08:01:02.956Z,12.70
2023-04-16T08:03:29.522Z,13.10
2023-04-16T08:05:56.417Z,12.00
2023-04-16T08:08:22.841Z,12.93
2023-04-16T08:10:49.421Z,12.93
2023-04-16T08:13:15.918Z,12.18
2023-04-16T08:15:42.397Z,13.48
2023-04-16T08:18:12.813Z,12.63
2023-04-16T08:20:39.415Z,12.73
2023-04-16T08:23:05.878Z,13.27
2023-04-16T08:25:32.313Z,11.73
2023-04-16T08:27:58.808Z,13.88
2023-04-16T08:30:25.681Z,12.38
2023-04-16T08:32:52.612Z,13.63
2023-04-16T08:35:19.096Z,14.38
2023-04-16T08:37:45.570Z,12.88
2023-04-16T08:40:12.544Z,13.30
2023-04-16T08:42:55.718Z,13.02
2023-04-16T08:45:22.241Z,13.98
2023-04-16T08:47:51.184Z,13.90
2023-04-16T08:50:24.254Z,13.20
2023-04-16T08:52:58.185Z,14.18
2023-04-16T08:55:49.421Z,14.10
2023-04-16T08:58:18.513Z,14.10
2023-04-16T09:00:46.320Z,13.73
2023-04-16T09:03:13.375Z,13.57
2023-04-16T09:05:40.052Z,14.18
2023-04-16T09:08:06.913Z,15.23
2023-04-16T09:10:34.324Z,15.15
2023-04-16T09:13:01.373Z,16.48
2023-04-16T09:15:28.048Z,14.60
2023-04-16T09:17:54.598Z,15.55
2023-04-16T09:20:21.221Z,16.35
2023-04-16T09:22:48.423Z,13.82
2023-04-16T09:25:15.430Z,15.65
2023-04-16T09:27:42.461Z,16.35
2023-04-16T09:30:26.222Z,15.13
2023-04-16T09:33:12.330Z,15.70
2023-04-16T09:35:52.990Z,15.40
2023-04-16T09:38:20.443Z,16.38
2023-04-16T09:40:49.672Z,16.50
2023-04-16T09:43:18.391Z,17.23
2023-04-16T09:45:53.411Z,16.33
2023-04-16T09:48:34.061Z,17.35
2023-04-16T09:51:01.723Z,17.00
2023-04-16T09:53:29.808Z,15.57
2023-04-16T09:55:59.917Z,15.85
2023-04-16T09:58:26.898Z,16.05
2023-04-16T10:01:13.349Z,16.90
2023-04-16T10:03:40.925Z,14.63
2023-04-16T10:06:16.531Z,16.70
2023-04-16T10:08:49.139Z,15.85
2023-04-16T10:11:17.929Z,16.73
2023-04-16T10:13:44.403Z,15.77
2023-04-16T10:16:11.406Z,17.15
2023-04-16T10:18:47.385Z,16.17
2023-04-16T10:21:16.180Z,16.50
2023-04-16T10:23:43.587Z,17.23
2023-04-16T10:26:10.633Z,16.70
2023-04-16T10:28:37.368Z,14.60
2023-04-16T10:31:07.472Z,15.43
2023-04-16T10:33:36.572Z,16.40
2023-04-16T10:36:30.973Z,16.33
2023-04-16T10:38:59.724Z,15.07
2023-04-16T10:41:27.234Z,15.25
2023-04-16T10:44:03.159Z,15.05
2023-04-16T10:46:41.297Z,15.55
2023-04-16T10:49:23.916Z,13.98
2023-04-16T10:52:03.147Z,15.73
2023-04-16T10:54:34.243Z,16.90
2023-04-16T10:57:08.548Z,16.15
2023-04-16T10:59:40.122Z,16.05
2023-04-16T11:02:09.753Z,15.23
2023-04-16T11:04:38.208Z,15.95
2023-04-16T11:10:02.284Z,14.40
2023-04-16T11:12:38.378Z,15.30
2023-04-16T11:15:10.512Z,16.10
2023-04-16T11:17:38.114Z,14.65
2023-04-16T11:20:19.577Z,14.00
2023-04-16T11:22:48.464Z,14.90
2023-04-16T11:25:23.219Z,14.75
2023-04-16T11:27:50.896Z,13.50
2023-04-16T11:30:18.464Z,14.63
2023-04-16T11:32:45.920Z,14.33
2023-04-16T11:35:18.287Z,14.65
2023-04-16T11:37:46.346Z,14.50
2023-04-16T11:40:13.064Z,13.73
2023-04-16T11:42:41.445Z,13.82
2023-04-16T11:45:09.535Z,14.55
2023-04-16T11:47:45.552Z,13.93
2023-04-16T11:50:28.612Z,14.13
2023-04-16T11:52:57.311Z,13.52
2023-04-16T11:55:24.678Z,13.65
2023-04-16T11:57:51.994Z,12.52
2023-04-16T12:00:23.762Z,13.75
2023-04-16T12:02:53.581Z,13.82
2023-04-16T12:05:28.661Z,13.75
2023-04-16T12:07:55.420Z,13.82
2023-04-16T12:10:22.074Z,12.38
2023-04-16T12:12:48.666Z,13.05
2023-04-16T12:15:15.341Z,13.45
2023-04-16T12:17:41.982Z,12.90
2023-04-16T12:20:15.664Z,13.45
2023-04-16T12:22:48.032Z,12.95
2023-04-16T12:25:16.406Z,13.52
2023-04-16T12:27:54.079Z,12.80
2023-04-16T12:30:22.854Z,12.48
2023-04-16T12:32:51.738Z,12.95
2023-04-16T12:35:32.589Z,13.25
2023-04-16T12:37:59.584Z,14.15
2023-04-16T12:40:26.421Z,12.80
2023-04-16T12:42:53.122Z,13.13
2023-04-16T12:45:19.675Z,12.75
2023-04-16T12:47:46.885Z,13.27
2023-04-16T12:50:13.397Z,11.55
2023-04-16T12:52:39.868Z,12.15
2023-04-16T12:55:07.050Z,12.52
2023-04-16T12:57:33.627Z,12.35
2023-04-16T13:00:00.235Z,12.48
2023-04-16T13:02:27.136Z,13.13
2023-04-16T13:04:55.001Z,13.25
2023-04-16T13:07:21.507Z,11.63
2023-04-16T13:09:47.936Z,12.60
2023-04-16T13:12:14.521Z,11.40
2023-04-16T13:14:43.304Z,12.93
2023-04-16T13:17:11.212Z,13.25
2023-04-16T13:19:37.669Z,13.50
2023-04-16T13:22:04.271Z,13.52
2023-04-16T13:24:30.817Z,13.30
2023-04-16T13:26:57.329Z,12.48
2023-04-16T13:29:23.806Z,12.95
2023-04-16T13:31:50.622Z,12.95
2023-04-16T13:34:17.457Z,13.02
2023-04-16T13:36:43.903Z,12.77
2023-04-16T13:39:13.296Z,12.55
2023-04-16T13:41:40.444Z,12.30
2023-04-16T13:44:07.523Z,12.90
2023-04-16T13:46:34.296Z,11.75
2023-04-16T13:49:01.333Z,12.50
2023-04-16T13:51:27.873Z,13.75
2023-04-16T13:53:55.927Z,12.40
2023-04-16T13:56:22.582Z,12.10
2023-04-16T13:58:49.319Z,11.82
2023-04-16T14:01:17.230Z,11.50
2023-04-16T14:03:44.168Z,12.43
2023-04-16T14:06:10.987Z,11.23
2023-04-16T14:08:38.201Z,11.55
2023-04-16T14:11:06.431Z,11.52
2023-04-16T14:13:32.938Z,11.50
2023-04-16T14:15:59.473Z,11.02
2023-04-16T14:18:25.948Z,12.07
2023-04-16T14:20:52.404Z,11.13
2023-04-16T14:23:18.929Z,11.77
2023-04-16T14:25:45.593Z,11.30
2023-04-16T14:28:14.230Z,11.07
2023-04-16T14:30:41.939Z,11.05
2023-04-16T14:33:08.526Z,11.30
2023-04-16T14:35:35.931Z,13.00
2023-04-16T14:38:02.604Z,11.93
2023-04-16T14:40:29.697Z,11.30
2023-04-16T14:42:56.159Z,11.75
2023-04-16T14:45:22.811Z,11.05
2023-04-16T14:47:50.822Z,11.65
2023-04-16T14:50:18.042Z,12.07
2023-04-16T14:52:44.520Z,12.32
2023-04-16T14:55:11.480Z,11.00
2023-04-16T14:57:38.890Z,10.85
2023-04-16T15:00:13.415Z,12.23
2023-04-16T15:02:40.072Z,11.77
2023-04-16T15:05:09.783Z,11.32
2023-04-16T15:07:36.997Z,12.07
2023-04-16T15:10:03.805Z,11.82
2023-04-16T15:12:30.382Z,11.05
2023-04-16T15:14:56.823Z,10.70
2023-04-16T15:17:23.370Z,11.68
2023-04-16T15:19:52.077Z,10.93
2023-04-16T15:22:18.698Z,11.30
2023-04-16T15:24:45.353Z,11.63
2023-04-16T15:27:13.817Z,11.40
2023-04-16T15:29:40.506Z,11.45
2023-04-16T15:32:07.087Z,11.55
2023-04-16T15:34:33.701Z,11.75
2023-04-16T15:37:00.431Z,11.02
2023-04-16T15:39:26.935Z,11.57
2023-04-16T15:42:01.511Z,11.07
2023-04-16T15:44:31.080Z,10.73
2023-04-16T15:46:57.660Z,10.85
2023-04-16T15:49:24.778Z,11.65
2023-04-16T15:51:52.084Z,11.80
2023-04-16T15:54:18.782Z,10.70
2023-04-16T15:56:46.552Z,10.77
2023-04-16T15:59:13.591Z,11.60
2023-04-16T16:01:40.370Z,12.10
2023-04-16T16:04:07.784Z,11.45
2023-04-16T16:06:34.615Z,10.87
2023-04-16T16:09:01.721Z,11.10
2023-04-16T16:11:28.290Z,10.45
2023-04-16T16:13:54.851Z,10.95
2023-04-16T16:16:21.939Z,11.18
2023-04-16T16:18:48.747Z,10.93
2023-04-16T16:21:15.570Z,10.07
2023-04-16T16:23:42.053Z,9.93
2023-04-16T16:26:09.212Z,8.98
2023-04-16T16:28:37.931Z,10.38
2023-04-16T16:31:06.075Z,9.98
2023-04-16T16:33:33.189Z,9.90
2023-04-16T16:35:59.744Z,10.48
2023-04-16T16:38:26.183Z,10.18
2023-04-16T16:40:52.621Z,9.57
2023-04-16T16:43:19.266Z,9.68
2023-04-16T16:45:46.496Z,10.10
2023-04-16T16:48:13.016Z,9.23
2023-04-16T16:50:39.466Z,10.88
2023-04-16T16:53:05.959Z,11.23
2023-04-16T16:55:32.395Z,10.90
2023-04-16T16:57:58.965Z,10.45
2023-04-16T17:00:25.525Z,10.30
2023-04-16T17:02:52.523Z,10.60
2023-04-16T17:05:19.888Z,11.15
2023-04-16T17:07:46.701Z,10.63
2023-04-16T17:10:19.876Z,10.80
2023-04-16T17:12:48.287Z,10.38
2023-04-16T17:15:15.553Z,11.48
2023-04-16T17:17:42.486Z,10.93
2023-04-16T17:20:10.773Z,11.18
2023-04-16T17:22:38.726Z,11.18
2023-04-16T17:25:07.694Z,10.98
2023-04-16T17:27:34.433Z,11.45
2023-04-16T17:30:02.019Z,10.00
2023-04-16T17:32:29.734Z,10.83
2023-04-16T17:34:56.492Z,10.00
2023-04-16T17:37:23.520Z,11.75
2023-04-16T17:39:50.547Z,11.48
2023-04-16T17:42:17.281Z,11.07
2023-04-16T17:44:45.306Z,11.15
2023-04-16T17:47:12.117Z,11.32
2023-04-16T17:49:38.541Z,10.50
2023-04-16T17:52:05.088Z,11.20
2023-04-16T17:54:31.591Z,10.57
2023-04-16T17:56:58.995Z,11.02
2023-04-16T17:59:27.777Z,11.68
2023-04-16T18:01:54.781Z,10.52
2023-04-16T18:04:21.678Z,10.93
2023-04-16T18:06:48.512Z,11.15
2023-04-16T18:09:15.574Z,11.63
2023-04-16T18:11:42.086Z,10.80
2023-04-16T18:14:10.006Z,12.02
2023-04-16T18:16:36.932Z,11.90
2023-04-16T18:19:03.661Z,12.35
2023-04-16T18:21:30.386Z,11.10
2023-04-16T18:23:57.600Z,12.65
2023-04-16T18:26:25.352Z,11.90
2023-04-16T18:28:51.932Z,10.73
2023-04-16T18:31:21.091Z,12.07
2023-04-16T18:33:56.726Z,11.65
2023-04-16T18:36:24.733Z,12.68
2023-04-16T18:39:00.905Z,11.70
2023-04-16T18:41:29.729Z,12.57
2023-04-16T18:43:56.282Z,13.13
2023-04-16T18:46:22.950Z,12.75
2023-04-16T18:48:49.815Z,13.27
2023-04-16T18:51:16.850Z,13.23
2023-04-16T18:53:45.354Z,14.75
2023-04-16T18:56:12.273Z,14.20
2023-04-16T18:58:38.853Z,13.00
2023-04-16T19:01:07.845Z,14.30
2023-04-16T19:03:34.704Z,13.95
2023-04-16T19:06:01.640Z,14.40
2023-04-16T19:08:28.514Z,14.20
2023-04-16T19:10:55.022Z,13.32
2023-04-16T19:13:21.532Z,14.05
2023-04-16T19:15:48.022Z,13.45
2023-04-16T19:18:14.964Z,14.70
2023-04-16T19:20:41.828Z,14.52
2023-04-16T19:23:09.317Z,12.10
2023-04-16T19:25:39.406Z,15.10
2023-04-16T19:28:09.158Z,15.23
2023-04-16T19:30:35.833Z,15.50
2023-04-16T19:33:02.716Z,16.25
2023-04-16T19:35:30.429Z,15.57
2023-04-16T19:37:57.223Z,16.45
2023-04-16T19:40:24.428Z,15.88
2023-04-16T19:42:50.951Z,15.82
2023-04-16T19:45:18.357Z,16.65
2023-04-16T19:47:45.726Z,16.70
2023-04-16T19:50:12.275Z,17.10
2023-04-16T19:52:39.034Z,17.30
2023-04-16T19:55:06.768Z,16.65
2023-04-16T19:57:33.437Z,15.10
2023-04-16T20:00:00.167Z,17.15
2023-04-16T20:02:26.839Z,17.58
2023-04-16T20:04:53.530Z,16.55
2023-04-16T20:07:20.405Z,18.00
2023-04-16T20:09:46.910Z,17.50
2023-04-16T20:12:13.393Z,16.60
2023-04-16T20:14:40.373Z,16.88
2023-04-16T20:17:10.050Z,16.88
2023-04-16T20:19:38.386Z,18.17
2023-04-16T20:22:04.941Z,18.50
2023-04-16T20:24:31.436Z,17.88
2023-04-16T20:26:58.059Z,18.63
2023-04-16T20:29:24.620Z,18.00
2023-04-16T20:31:51.132Z,17.88
2023-04-16T20:34:17.642Z,17.75
2023-04-16T20:36:44.045Z,18.10
2023-04-16T20:39:11.135Z,17.65
2023-04-16T20:41:44.357Z,18.70
2023-04-16T20:44:18.259Z,16.90
2023-04-16T20:46:49.442Z,16.83
2023-04-16T20:49:17.560Z,18.35
2023-04-16T20:51:44.040Z,17.83
2023-04-16T20:54:10.774Z,17.98
2023-04-16T20:56:37.213Z,17.33
2023-04-16T20:59:03.867Z,18.20
2023-04-16T21:01:30.771Z,18.70
2023-04-16T21:03:57.540Z,17.42
2023-04-16T21:06:24.209Z,18.38
2023-04-16T21:08:50.661Z,18.25
2023-04-16T21:11:17.089Z,18.02
2023-04-16T21:13:43.486Z,17.98
2023-04-16T21:16:12.433Z,18.65
2023-04-16T21:18:39.069Z,18.85
2023-04-16T21:21:05.931Z,18.60
2023-04-16T21:23:32.445Z,18.42
2023-04-16T21:25:58.841Z,17.73
2023-04-16T21:28:25.340Z,18.55
2023-04-16T21:30:52.531Z,16.90
2023-04-16T21:33:18.914Z,18.48
2023-04-16T21:35:51.159Z,18.60
2023-04-16T21:38:17.584Z,18.58
2023-04-16T21:40:45.947Z,16.17
2023-04-16T21:43:12.494Z,16.88
2023-04-16T21:45:39.732Z,16.65
2023-04-16T21:48:06.597Z,16.52
2023-04-16T21:50:33.337Z,15.20
2023-04-16T21:52:59.844Z,16.85
2023-04-16T21:55:26.309Z,16.10
2023-04-16T21:57:52.861Z,16.45
2023-04-16T22:00:19.653Z,16.48
2023-04-16T22:02:46.317Z,16.65
2023-04-16T22:05:13.024Z,15.93
2023-04-16T22:07:39.723Z,16.15
2023-04-16T22:10:08.684Z,17.42
2023-04-16T22:12:37.860Z,16.27
2023-04-16T22:15:05.847Z,17.05
2023-04-16T22:17:34.019Z,14.50
2023-04-16T22:20:04.813Z,15.13
2023-04-16T22:22:31.328Z,16.25
2023-04-16T22:24:57.769Z,15.40
2023-04-16T22:27:24.256Z,15.85
2023-04-16T22:29:50.767Z,14.30
2023-04-16T22:32:17.417Z,15.60
2023-04-16T22:34:44.090Z,17.02
2023-04-16T22:37:10.804Z,15.88
2023-04-16T22:39:37.286Z,16.50
2023-04-16T22:42:03.739Z,14.85
2023-04-16T22:44:30.221Z,16.02
2023-04-16T22:46:56.793Z,16.15
2023-04-16T22:49:23.290Z,16.15
2023-04-16T22:51:49.833Z,14.68
2023-04-16T22:54:16.232Z,15.73
2023-04-16T22:56:42.862Z,16.45
2023-04-16T22:59:09.618Z,18.33
2023-04-16T23:01:36.662Z,14.75
2023-04-16T23:04:03.248Z,15.88
2023-04-16T23:06:29.754Z,17.38
2023-04-16T23:08:56.154Z,16.23
2023-04-16T23:11:22.962Z,16.67
2023-04-16T23:13:49.390Z,17.25
2023-04-16T23:16:15.999Z,16.48
2023-04-16T23:18:42.542Z,17.10
2023-04-16T23:21:08.974Z,16.13
2023-04-16T23:23:35.436Z,16.13
2023-04-16T23:26:02.833Z,15.48
2023-04-16T23:28:29.306Z,17.98
2023-04-16T23:30:55.926Z,15.98
2023-04-16T23:33:22.583Z,16.50
2023-04-16T23:35:49.012Z,14.68
2023-04-16T23:38:15.577Z,15.73
2023-04-16T23:40:42.083Z,13.50
2023-04-16T23:43:08.517Z,14.93
2023-04-16T23:45:34.902Z,15.18
2023-04-16T23:48:01.628Z,15.23
2023-04-16T23:50:28.178Z,16.10
2023-04-16T23:52:54.596Z,15.43
2023-04-16T23:55:21.404Z,16.98
2023-04-16T23:57:47.832Z,15.55
